sensor_id;sensor_type;location;lat;lon;timestamp;P1;durP1;ratioP1;P2;durP2;ratioP2
37593;SDS011;23441;50.856;6.076;2023-12-14T00:01:51;40.83;;;20.00;;
37593;SDS011;23441;50.856;6.076;2023-12-14T00:04:37;52.03;;;23.23;;
37593;SDS011;23441;50.856;6.076;2023-12-14T00:07:23;53.40;;;23.17;;
37593;SDS011;23441;50.856;6.076;2023-12-14T00:10:09;52.45;;;22.60;;
37593;SDS011;23441;50.856;6.076;2023-12-14T00:12:55;52.30;;;22.25;;
37593;SDS011;23441;50.856;6.076;2023-12-14T00:15:41;54.22;;;23.70;;
37593;SDS011;23441;50.856;6.076;2023-12-14T00:18:27;48.90;;;22.95;;
37593;SDS011;23441;50.856;6.076;2023-12-14T00:21:13;49.05;;;23.30;;
37593;SDS011;23441;50.856;6.076;2023-12-14T00:23:59;57.17;;;25.17;;
37593;SDS011;23441;50.856;6.076;2023-12-14T00:26:45;68.40;;;28.77;;
37593;SDS011;23441;50.856;6.076;2023-12-14T00:29:31;59.80;;;27.38;;
37593;SDS011;23441;50.856;6.076;2023-12-14T00:32:17;61.45;;;27.02;;
37593;SDS011;23441;50.856;6.076;2023-12-14T00:35:03;61.80;;;27.70;;
37593;SDS011;23441;50.856;6.076;2023-12-14T00:37:49;51.88;;;25.38;;
37593;SDS011;23441;50.856;6.076;2023-12-14T00:40:35;58.33;;;27.02;;
37593;SDS011;23441;50.856;6.076;2023-12-14T00:43:21;56.97;;;26.70;;
37593;SDS011;23441;50.856;6.076;2023-12-14T00:46:07;56.25;;;26.63;;
37593;SDS011;23441;50.856;6.076;2023-12-14T00:48:54;48.85;;;25.05;;
37593;SDS011;23441;50.856;6.076;2023-12-14T00:51:40;56.90;;;26.80;;
37593;SDS011;23441;50.856;6.076;2023-12-14T00:54:26;52.97;;;25.83;;
37593;SDS011;23441;50.856;6.076;2023-12-14T00:57:12;68.15;;;27.48;;
37593;SDS011;23441;50.856;6.076;2023-12-14T00:59:58;68.10;;;27.98;;
37593;SDS011;23441;50.856;6.076;2023-12-14T01:02:44;66.78;;;27.88;;
37593;SDS011;23441;50.856;6.076;2023-12-14T01:05:30;77.90;;;29.10;;
37593;SDS011;23441;50.856;6.076;2023-12-14T01:08:16;69.90;;;28.45;;
37593;SDS011;23441;50.856;6.076;2023-12-14T01:11:02;131.73;;;32.25;;
37593;SDS011;23441;50.856;6.076;2023-12-14T01:13:48;88.72;;;29.23;;
37593;SDS011;23441;50.856;6.076;2023-12-14T01:16:33;80.53;;;28.48;;
37593;SDS011;23441;50.856;6.076;2023-12-14T01:19:19;76.05;;;28.73;;
37593;SDS011;23441;50.856;6.076;2023-12-14T01:22:05;70.57;;;28.70;;
37593;SDS011;23441;50.856;6.076;2023-12-14T01:24:51;74.53;;;30.15;;
37593;SDS011;23441;50.856;6.076;2023-12-14T01:27:37;77.40;;;31.10;;
37593;SDS011;23441;50.856;6.076;2023-12-14T01:30:23;79.50;;;29.58;;
37593;SDS011;23441;50.856;6.076;2023-12-14T01:33:09;74.38;;;30.33;;
37593;SDS011;23441;50.856;6.076;2023-12-14T01:35:55;84.10;;;29.98;;
37593;SDS011;23441;50.856;6.076;2023-12-14T01:38:41;77.95;;;30.67;;
37593;SDS011;23441;50.856;6.076;2023-12-14T01:41:27;82.70;;;31.23;;
37593;SDS011;23441;50.856;6.076;2023-12-14T01:44:13;81.25;;;32.72;;
37593;SDS011;23441;50.856;6.076;2023-12-14T01:46:59;82.18;;;32.78;;
37593;SDS011;23441;50.856;6.076;2023-12-14T01:49:44;84.57;;;31.73;;
37593;SDS011;23441;50.856;6.076;2023-12-14T01:52:30;86.20;;;31.73;;
37593;SDS011;23441;50.856;6.076;2023-12-14T01:55:16;83.40;;;31.48;;
37593;SDS011;23441;50.856;6.076;2023-12-14T01:58:02;80.93;;;30.38;;
37593;SDS011;23441;50.856;6.076;2023-12-14T02:00:49;80.47;;;31.45;;
37593;SDS011;23441;50.856;6.076;2023-12-14T02:03:45;84.78;;;30.45;;
37593;SDS011;23441;50.856;6.076;2023-12-14T02:06:32;72.93;;;29.95;;
37593;SDS011;23441;50.856;6.076;2023-12-14T02:09:18;78.68;;;29.45;;
37593;SDS011;23441;50.856;6.076;2023-12-14T02:12:04;77.82;;;28.52;;
37593;SDS011;23441;50.856;6.076;2023-12-14T02:14:50;75.20;;;28.10;;
37593;SDS011;23441;50.856;6.076;2023-12-14T02:17:36;79.63;;;30.85;;
37593;SDS011;23441;50.856;6.076;2023-12-14T02:20:22;81.20;;;31.25;;
37593;SDS011;23441;50.856;6.076;2023-12-14T02:23:08;84.63;;;31.02;;
37593;SDS011;23441;50.856;6.076;2023-12-14T02:25:54;75.70;;;28.63;;
37593;SDS011;23441;50.856;6.076;2023-12-14T02:28:40;249.32;;;32.83;;
37593;SDS011;23441;50.856;6.076;2023-12-14T02:31:26;240.48;;;32.42;;
37593;SDS011;23441;50.856;6.076;2023-12-14T02:34:12;227.23;;;28.73;;
37593;SDS011;23441;50.856;6.076;2023-12-14T02:36:58;215.82;;;28.45;;
37593;SDS011;23441;50.856;6.076;2023-12-14T02:39:43;265.50;;;28.50;;
37593;SDS011;23441;50.856;6.076;2023-12-14T02:42:32;68.97;;;20.83;;
37593;SDS011;23441;50.856;6.076;2023-12-14T02:45:18;108.30;;;20.63;;
37593;SDS011;23441;50.856;6.076;2023-12-14T02:48:04;92.65;;;20.05;;
37593;SDS011;23441;50.856;6.076;2023-12-14T02:50:50;134.50;;;22.65;;
37593;SDS011;23441;50.856;6.076;2023-12-14T02:53:36;62.13;;;20.13;;
37593;SDS011;23441;50.856;6.076;2023-12-14T02:56:22;54.17;;;19.30;;
37593;SDS011;23441;50.856;6.076;2023-12-14T02:59:08;48.85;;;19.35;;
37593;SDS011;23441;50.856;6.076;2023-12-14T03:01:54;46.75;;;18.88;;
37593;SDS011;23441;50.856;6.076;2023-12-14T03:04:40;70.63;;;18.63;;
37593;SDS011;23441;50.856;6.076;2023-12-14T03:07:26;61.22;;;19.25;;
37593;SDS011;23441;50.856;6.076;2023-12-14T03:10:12;96.35;;;19.85;;
37593;SDS011;23441;50.856;6.076;2023-12-14T03:12:58;140.13;;;22.08;;
37593;SDS011;23441;50.856;6.076;2023-12-14T03:15:44;89.90;;;20.23;;
37593;SDS011;23441;50.856;6.076;2023-12-14T03:18:30;121.03;;;21.40;;
37593;SDS011;23441;50.856;6.076;2023-12-14T03:21:16;236.05;;;23.35;;
37593;SDS011;23441;50.856;6.076;2023-12-14T03:24:02;134.50;;;21.15;;
37593;SDS011;23441;50.856;6.076;2023-12-14T03:26:48;267.05;;;23.70;;
37593;SDS011;23441;50.856;6.076;2023-12-14T03:29:34;343.15;;;26.80;;
37593;SDS011;23441;50.856;6.076;2023-12-14T03:32:20;458.88;;;33.42;;
37593;SDS011;23441;50.856;6.076;2023-12-14T03:35:06;362.80;;;30.10;;
37593;SDS011;23441;50.856;6.076;2023-12-14T03:37:53;340.08;;;25.20;;
37593;SDS011;23441;50.856;6.076;2023-12-14T03:40:39;362.77;;;28.52;;
37593;SDS011;23441;50.856;6.076;2023-12-14T03:43:25;264.42;;;26.70;;
37593;SDS011;23441;50.856;6.076;2023-12-14T03:46:11;247.02;;;25.92;;
37593;SDS011;23441;50.856;6.076;2023-12-14T03:48:57;244.30;;;23.85;;
37593;SDS011;23441;50.856;6.076;2023-12-14T03:51:43;234.75;;;25.35;;
37593;SDS011;23441;50.856;6.076;2023-12-14T03:54:29;296.50;;;27.00;;
37593;SDS011;23441;50.856;6.076;2023-12-14T03:57:15;320.20;;;28.33;;
37593;SDS011;23441;50.856;6.076;2023-12-14T04:00:01;345.73;;;29.67;;
37593;SDS011;23441;50.856;6.076;2023-12-14T04:02:47;177.75;;;21.70;;
37593;SDS011;23441;50.856;6.076;2023-12-14T04:05:35;50.67;;;17.50;;
37593;SDS011;23441;50.856;6.076;2023-12-14T04:08:21;66.72;;;16.42;;
37593;SDS011;23441;50.856;6.076;2023-12-14T04:11:07;60.17;;;17.90;;
37593;SDS011;23441;50.856;6.076;2023-12-14T04:13:53;78.72;;;18.40;;
37593;SDS011;23441;50.856;6.076;2023-12-14T04:16:40;130.98;;;23.88;;
37593;SDS011;23441;50.856;6.076;2023-12-14T04:19:26;149.38;;;19.83;;
37593;SDS011;23441;50.856;6.076;2023-12-14T04:22:11;73.20;;;19.05;;
37593;SDS011;23441;50.856;6.076;2023-12-14T04:24:57;150.32;;;19.67;;
37593;SDS011;23441;50.856;6.076;2023-12-14T04:27:44;156.85;;;21.17;;
37593;SDS011;23441;50.856;6.076;2023-12-14T04:30:29;125.35;;;19.80;;
37593;SDS011;23441;50.856;6.076;2023-12-14T04:33:15;137.70;;;19.98;;
37593;SDS011;23441;50.856;6.076;2023-12-14T04:36:01;71.97;;;16.48;;
37593;SDS011;23441;50.856;6.076;2023-12-14T04:38:48;39.05;;;14.90;;
37593;SDS011;23441;50.856;6.076;2023-12-14T04:41:34;49.97;;;17.48;;
37593;SDS011;23441;50.856;6.076;2023-12-14T04:44:20;40.10;;;14.75;;
37593;SDS011;23441;50.856;6.076;2023-12-14T04:47:09;43.72;;;16.73;;
37593;SDS011;23441;50.856;6.076;2023-12-14T04:49:55;38.20;;;16.05;;
37593;SDS011;23441;50.856;6.076;2023-12-14T04:52:41;42.17;;;15.85;;
37593;SDS011;23441;50.856;6.076;2023-12-14T04:55:28;35.40;;;14.65;;
37593;SDS011;23441;50.856;6.076;2023-12-14T04:58:14;37.38;;;14.90;;
37593;SDS011;23441;50.856;6.076;2023-12-14T05:01:00;39.25;;;15.63;;
37593;SDS011;23441;50.856;6.076;2023-12-14T05:03:45;38.80;;;14.98;;
37593;SDS011;23441;50.856;6.076;2023-12-14T05:06:31;36.95;;;15.90;;
37593;SDS011;23441;50.856;6.076;2023-12-14T05:09:19;36.25;;;14.57;;
37593;SDS011;23441;50.856;6.076;2023-12-14T05:12:05;41.17;;;16.15;;
37593;SDS011;23441;50.856;6.076;2023-12-14T05:14:51;36.03;;;15.00;;
37593;SDS011;23441;50.856;6.076;2023-12-14T05:17:37;44.13;;;15.75;;
37593;SDS011;23441;50.856;6.076;2023-12-14T05:20:23;40.85;;;15.68;;
37593;SDS011;23441;50.856;6.076;2023-12-14T05:23:09;36.10;;;16.17;;
37593;SDS011;23441;50.856;6.076;2023-12-14T05:25:55;35.78;;;14.50;;
37593;SDS011;23441;50.856;6.076;2023-12-14T05:28:41;40.72;;;16.02;;
37593;SDS011;23441;50.856;6.076;2023-12-14T05:31:27;59.40;;;17.73;;
37593;SDS011;23441;50.856;6.076;2023-12-14T05:34:13;64.50;;;19.60;;
37593;SDS011;23441;50.856;6.076;2023-12-14T05:36:59;97.88;;;18.45;;
37593;SDS011;23441;50.856;6.076;2023-12-14T05:39:45;137.40;;;20.38;;
37593;SDS011;23441;50.856;6.076;2023-12-14T05:42:31;64.10;;;17.23;;
37593;SDS011;23441;50.856;6.076;2023-12-14T05:45:17;53.53;;;16.83;;
37593;SDS011;23441;50.856;6.076;2023-12-14T05:48:06;45.90;;;17.55;;
37593;SDS011;23441;50.856;6.076;2023-12-14T05:50:52;37.90;;;16.15;;
37593;SDS011;23441;50.856;6.076;2023-12-14T05:53:38;39.15;;;16.77;;
37593;SDS011;23441;50.856;6.076;2023-12-14T05:56:25;43.55;;;16.05;;
37593;SDS011;23441;50.856;6.076;2023-12-14T05:59:11;62.35;;;18.13;;
37593;SDS011;23441;50.856;6.076;2023-12-14T06:01:58;50.72;;;16.42;;
37593;SDS011;23441;50.856;6.076;2023-12-14T06:04:44;38.00;;;16.05;;
37593;SDS011;23441;50.856;6.076;2023-12-14T06:07:30;42.85;;;15.65;;
37593;SDS011;23441;50.856;6.076;2023-12-14T06:10:16;39.35;;;15.23;;
37593;SDS011;23441;50.856;6.076;2023-12-14T06:13:02;34.67;;;13.68;;
37593;SDS011;23441;50.856;6.076;2023-12-14T06:15:47;34.80;;;14.82;;
37593;SDS011;23441;50.856;6.076;2023-12-14T06:18:33;31.02;;;13.82;;
37593;SDS011;23441;50.856;6.076;2023-12-14T06:21:19;42.55;;;16.52;;
37593;SDS011;23441;50.856;6.076;2023-12-14T06:24:05;39.95;;;15.50;;
37593;SDS011;23441;50.856;6.076;2023-12-14T06:26:51;32.13;;;13.95;;
37593;SDS011;23441;50.856;6.076;2023-12-14T06:29:37;38.80;;;15.88;;
37593;SDS011;23441;50.856;6.076;2023-12-14T06:32:23;44.30;;;16.00;;
37593;SDS011;23441;50.856;6.076;2023-12-14T06:35:09;35.75;;;15.00;;
37593;SDS011;23441;50.856;6.076;2023-12-14T06:37:55;53.38;;;16.73;;
37593;SDS011;23441;50.856;6.076;2023-12-14T06:40:41;56.67;;;17.42;;
37593;SDS011;23441;50.856;6.076;2023-12-14T06:43:27;49.22;;;18.40;;
37593;SDS011;23441;50.856;6.076;2023-12-14T06:46:13;48.90;;;15.48;;
37593;SDS011;23441;50.856;6.076;2023-12-14T06:48:59;49.85;;;15.07;;
37593;SDS011;23441;50.856;6.076;2023-12-14T06:51:45;51.50;;;15.95;;
37593;SDS011;23441;50.856;6.076;2023-12-14T06:54:31;55.72;;;15.32;;
37593;SDS011;23441;50.856;6.076;2023-12-14T06:57:17;48.97;;;14.38;;
37593;SDS011;23441;50.856;6.076;2023-12-14T07:00:03;49.45;;;14.68;;
37593;SDS011;23441;50.856;6.076;2023-12-14T07:02:49;35.42;;;13.57;;
37593;SDS011;23441;50.856;6.076;2023-12-14T07:05:36;41.58;;;13.50;;
37593;SDS011;23441;50.856;6.076;2023-12-14T07:08:22;42.20;;;13.63;;
37593;SDS011;23441;50.856;6.076;2023-12-14T07:11:08;38.13;;;13.32;;
37593;SDS011;23441;50.856;6.076;2023-12-14T07:13:55;34.03;;;12.48;;
37593;SDS011;23441;50.856;6.076;2023-12-14T07:16:41;33.83;;;12.77;;
37593;SDS011;23441;50.856;6.076;2023-12-14T07:19:27;29.27;;;11.82;;
37593;SDS011;23441;50.856;6.076;2023-12-14T07:22:13;30.83;;;12.02;;
37593;SDS011;23441;50.856;6.076;2023-12-14T07:24:59;30.77;;;12.10;;
37593;SDS011;23441;50.856;6.076;2023-12-14T07:27:45;29.02;;;11.13;;
37593;SDS011;23441;50.856;6.076;2023-12-14T07:30:32;32.60;;;11.93;;
37593;SDS011;23441;50.856;6.076;2023-12-14T07:33:17;34.17;;;12.07;;
37593;SDS011;23441;50.856;6.076;2023-12-14T07:36:04;30.33;;;11.38;;
37593;SDS011;23441;50.856;6.076;2023-12-14T07:38:51;31.15;;;12.73;;
37593;SDS011;23441;50.856;6.076;2023-12-14T07:41:37;35.25;;;13.38;;
37593;SDS011;23441;50.856;6.076;2023-12-14T07:44:23;34.25;;;13.35;;
37593;SDS011;23441;50.856;6.076;2023-12-14T07:47:10;39.30;;;14.02;;
37593;SDS011;23441;50.856;6.076;2023-12-14T07:49:56;31.40;;;14.23;;
37593;SDS011;23441;50.856;6.076;2023-12-14T07:52:42;34.47;;;14.57;;
37593;SDS011;23441;50.856;6.076;2023-12-14T07:55:28;41.65;;;15.35;;
37593;SDS011;23441;50.856;6.076;2023-12-14T07:58:14;40.33;;;14.43;;
37593;SDS011;23441;50.856;6.076;2023-12-14T08:01:00;43.35;;;15.73;;
37593;SDS011;23441;50.856;6.076;2023-12-14T08:03:46;44.10;;;16.73;;
37593;SDS011;23441;50.856;6.076;2023-12-14T08:06:32;48.90;;;18.90;;
37593;SDS011;23441;50.856;6.076;2023-12-14T08:09:18;46.28;;;18.27;;
37593;SDS011;23441;50.856;6.076;2023-12-14T08:12:04;43.80;;;17.30;;
37593;SDS011;23441;50.856;6.076;2023-12-14T08:14:50;45.75;;;19.60;;
37593;SDS011;23441;50.856;6.076;2023-12-14T08:17:36;43.60;;;18.40;;
37593;SDS011;23441;50.856;6.076;2023-12-14T08:20:22;53.92;;;20.38;;
37593;SDS011;23441;50.856;6.076;2023-12-14T08:23:08;49.67;;;19.35;;
37593;SDS011;23441;50.856;6.076;2023-12-14T08:25:54;43.58;;;17.92;;
37593;SDS011;23441;50.856;6.076;2023-12-14T08:28:42;42.33;;;16.90;;
37593;SDS011;23441;50.856;6.076;2023-12-14T08:31:29;36.35;;;15.65;;
37593;SDS011;23441;50.856;6.076;2023-12-14T08:34:15;38.15;;;15.32;;
37593;SDS011;23441;50.856;6.076;2023-12-14T08:37:01;35.45;;;15.18;;
37593;SDS011;23441;50.856;6.076;2023-12-14T08:39:48;39.42;;;16.27;;
37593;SDS011;23441;50.856;6.076;2023-12-14T08:42:33;36.42;;;16.20;;
37593;SDS011;23441;50.856;6.076;2023-12-14T08:45:19;38.08;;;15.35;;
37593;SDS011;23441;50.856;6.076;2023-12-14T08:48:05;31.63;;;14.52;;
37593;SDS011;23441;50.856;6.076;2023-12-14T08:50:53;36.45;;;14.90;;
37593;SDS011;23441;50.856;6.076;2023-12-14T08:53:40;34.00;;;14.85;;
37593;SDS011;23441;50.856;6.076;2023-12-14T08:56:26;27.55;;;13.20;;
37593;SDS011;23441;50.856;6.076;2023-12-14T08:59:12;32.33;;;14.43;;
37593;SDS011;23441;50.856;6.076;2023-12-14T09:01:58;34.15;;;14.23;;
37593;SDS011;23441;50.856;6.076;2023-12-14T09:04:44;33.92;;;14.77;;
37593;SDS011;23441;50.856;6.076;2023-12-14T09:07:30;33.45;;;14.48;;
37593;SDS011;23441;50.856;6.076;2023-12-14T09:10:16;33.80;;;15.82;;
37593;SDS011;23441;50.856;6.076;2023-12-14T09:13:02;34.58;;;16.77;;
37593;SDS011;23441;50.856;6.076;2023-12-14T09:15:49;34.53;;;15.32;;
37593;SDS011;23441;50.856;6.076;2023-12-14T09:18:37;33.58;;;16.67;;
37593;SDS011;23441;50.856;6.076;2023-12-14T09:21:23;38.42;;;16.77;;
37593;SDS011;23441;50.856;6.076;2023-12-14T09:24:09;35.50;;;16.90;;
37593;SDS011;23441;50.856;6.076;2023-12-14T09:26:55;32.53;;;16.02;;
37593;SDS011;23441;50.856;6.076;2023-12-14T09:29:41;34.42;;;16.58;;
37593;SDS011;23441;50.856;6.076;2023-12-14T09:32:27;37.88;;;17.55;;
37593;SDS011;23441;50.856;6.076;2023-12-14T09:35:13;33.95;;;17.65;;
37593;SDS011;23441;50.856;6.076;2023-12-14T09:37:59;34.15;;;16.98;;
37593;SDS011;23441;50.856;6.076;2023-12-14T09:40:46;31.95;;;15.57;;
37593;SDS011;23441;50.856;6.076;2023-12-14T09:43:32;33.65;;;16.40;;
37593;SDS011;23441;50.856;6.076;2023-12-14T09:46:18;33.40;;;15.77;;
37593;SDS011;23441;50.856;6.076;2023-12-14T09:49:07;34.85;;;15.93;;
37593;SDS011;23441;50.856;6.076;2023-12-14T09:51:55;32.45;;;16.35;;
37593;SDS011;23441;50.856;6.076;2023-12-14T09:54:43;33.65;;;16.42;;
37593;SDS011;23441;50.856;6.076;2023-12-14T09:57:29;32.78;;;16.00;;
37593;SDS011;23441;50.856;6.076;2023-12-14T10:00:32;32.55;;;15.55;;
37593;SDS011;23441;50.856;6.076;2023-12-14T10:03:25;30.42;;;16.08;;
37593;SDS011;23441;50.856;6.076;2023-12-14T10:06:13;34.05;;;15.82;;
37593;SDS011;23441;50.856;6.076;2023-12-14T10:08:59;36.42;;;16.83;;
37593;SDS011;23441;50.856;6.076;2023-12-14T10:11:45;29.73;;;15.10;;
37593;SDS011;23441;50.856;6.076;2023-12-14T10:14:31;33.53;;;16.23;;
37593;SDS011;23441;50.856;6.076;2023-12-14T10:17:21;32.83;;;16.33;;
37593;SDS011;23441;50.856;6.076;2023-12-14T10:20:14;32.15;;;15.52;;
37593;SDS011;23441;50.856;6.076;2023-12-14T10:23:07;33.33;;;15.60;;
37593;SDS011;23441;50.856;6.076;2023-12-14T10:25:54;30.98;;;15.20;;
37593;SDS011;23441;50.856;6.076;2023-12-14T10:28:40;34.15;;;16.27;;
37593;SDS011;23441;50.856;6.076;2023-12-14T10:31:26;30.00;;;15.65;;
37593;SDS011;23441;50.856;6.076;2023-12-14T10:34:12;32.95;;;16.05;;
37593;SDS011;23441;50.856;6.076;2023-12-14T10:36:59;35.22;;;16.42;;
37593;SDS011;23441;50.856;6.076;2023-12-14T10:39:46;34.05;;;16.75;;
37593;SDS011;23441;50.856;6.076;2023-12-14T10:42:34;31.70;;;15.57;;
37593;SDS011;23441;50.856;6.076;2023-12-14T10:45:21;35.20;;;17.20;;
37593;SDS011;23441;50.856;6.076;2023-12-14T10:48:12;33.90;;;15.57;;
37593;SDS011;23441;50.856;6.076;2023-12-14T10:50:59;35.72;;;16.77;;
37593;SDS011;23441;50.856;6.076;2023-12-14T10:53:47;37.63;;;17.63;;
37593;SDS011;23441;50.856;6.076;2023-12-14T10:56:34;33.08;;;16.60;;
37593;SDS011;23441;50.856;6.076;2023-12-14T10:59:20;35.22;;;16.58;;
37593;SDS011;23441;50.856;6.076;2023-12-14T11:02:07;30.70;;;15.63;;
37593;SDS011;23441;50.856;6.076;2023-12-14T11:04:59;33.70;;;14.85;;
37593;SDS011;23441;50.856;6.076;2023-12-14T11:07:52;35.47;;;15.60;;
37593;SDS011;23441;50.856;6.076;2023-12-14T11:10:41;29.40;;;14.65;;
37593;SDS011;23441;50.856;6.076;2023-12-14T11:13:29;26.70;;;13.82;;
37593;SDS011;23441;50.856;6.076;2023-12-14T11:16:16;25.33;;;13.02;;
37593;SDS011;23441;50.856;6.076;2023-12-14T11:22:10;24.50;;;12.52;;
37593;SDS011;23441;50.856;6.076;2023-12-14T11:24:57;26.00;;;13.77;;
37593;SDS011;23441;50.856;6.076;2023-12-14T11:27:43;22.10;;;11.65;;
37593;SDS011;23441;50.856;6.076;2023-12-14T11:30:30;22.65;;;11.88;;
37593;SDS011;23441;50.856;6.076;2023-12-14T11:33:16;25.23;;;12.65;;
37593;SDS011;23441;50.856;6.076;2023-12-14T11:36:02;28.50;;;13.05;;
37593;SDS011;23441;50.856;6.076;2023-12-14T11:38:48;27.85;;;12.65;;
37593;SDS011;23441;50.856;6.076;2023-12-14T11:41:35;25.40;;;12.48;;
37593;SDS011;23441;50.856;6.076;2023-12-14T11:44:24;28.98;;;13.23;;
37593;SDS011;23441;50.856;6.076;2023-12-14T11:47:11;28.67;;;12.57;;
37593;SDS011;23441;50.856;6.076;2023-12-14T11:49:57;27.73;;;14.45;;
37593;SDS011;23441;50.856;6.076;2023-12-14T11:52:43;30.88;;;14.43;;
37593;SDS011;23441;50.856;6.076;2023-12-14T11:55:30;31.95;;;14.35;;
37593;SDS011;23441;50.856;6.076;2023-12-14T11:58:16;30.60;;;14.00;;
37593;SDS011;23441;50.856;6.076;2023-12-14T12:04:09;29.98;;;15.57;;
37593;SDS011;23441;50.856;6.076;2023-12-14T12:07:00;30.30;;;14.85;;
37593;SDS011;23441;50.856;6.076;2023-12-14T12:09:50;33.47;;;15.65;;
37593;SDS011;23441;50.856;6.076;2023-12-14T12:12:37;31.20;;;15.15;;
37593;SDS011;23441;50.856;6.076;2023-12-14T12:15:23;30.35;;;15.27;;
37593;SDS011;23441;50.856;6.076;2023-12-14T12:18:10;28.40;;;14.10;;
37593;SDS011;23441;50.856;6.076;2023-12-14T12:20:57;29.63;;;15.73;;
37593;SDS011;23441;50.856;6.076;2023-12-14T12:23:49;33.03;;;16.42;;
37593;SDS011;23441;50.856;6.076;2023-12-14T12:26:35;33.20;;;15.52;;
37593;SDS011;23441;50.856;6.076;2023-12-14T12:29:21;33.03;;;15.32;;
37593;SDS011;23441;50.856;6.076;2023-12-14T12:32:07;30.92;;;14.73;;
37593;SDS011;23441;50.856;6.076;2023-12-14T12:34:53;32.63;;;15.30;;
37593;SDS011;23441;50.856;6.076;2023-12-14T12:37:39;29.23;;;14.30;;
37593;SDS011;23441;50.856;6.076;2023-12-14T12:40:25;29.88;;;14.18;;
37593;SDS011;23441;50.856;6.076;2023-12-14T12:43:12;27.88;;;14.35;;
37593;SDS011;23441;50.856;6.076;2023-12-14T12:45:59;22.27;;;11.98;;
37593;SDS011;23441;50.856;6.076;2023-12-14T12:48:46;24.15;;;12.65;;
37593;SDS011;23441;50.856;6.076;2023-12-14T12:51:32;20.55;;;12.10;;
37593;SDS011;23441;50.856;6.076;2023-12-14T12:54:18;23.83;;;12.25;;
37593;SDS011;23441;50.856;6.076;2023-12-14T12:57:04;28.38;;;12.15;;
37593;SDS011;23441;50.856;6.076;2023-12-14T12:59:50;24.45;;;12.32;;
37593;SDS011;23441;50.856;6.076;2023-12-14T13:02:39;28.33;;;12.13;;
37593;SDS011;23441;50.856;6.076;2023-12-14T13:20:30;24.35;;;12.88;;
37593;SDS011;23441;50.856;6.076;2023-12-14T13:23:16;23.77;;;12.32;;
37593;SDS011;23441;50.856;6.076;2023-12-14T13:26:02;23.90;;;12.63;;
37593;SDS011;23441;50.856;6.076;2023-12-14T13:28:48;28.17;;;13.55;;
37593;SDS011;23441;50.856;6.076;2023-12-14T13:31:34;22.02;;;12.27;;
37593;SDS011;23441;50.856;6.076;2023-12-14T13:34:20;19.10;;;11.68;;
37593;SDS011;23441;50.856;6.076;2023-12-14T13:37:06;22.15;;;11.60;;
37593;SDS011;23441;50.856;6.076;2023-12-14T13:39:54;22.20;;;12.25;;
37593;SDS011;23441;50.856;6.076;2023-12-14T13:42:40;15.73;;;9.93;;
37593;SDS011;23441;50.856;6.076;2023-12-14T13:45:26;17.13;;;9.57;;
37593;SDS011;23441;50.856;6.076;2023-12-14T13:48:14;15.68;;;9.13;;
37593;SDS011;23441;50.856;6.076;2023-12-14T13:51:00;18.00;;;9.98;;
37593;SDS011;23441;50.856;6.076;2023-12-14T13:53:46;15.30;;;8.70;;
37593;SDS011;23441;50.856;6.076;2023-12-14T13:56:32;14.40;;;8.68;;
37593;SDS011;23441;50.856;6.076;2023-12-14T13:59:18;14.60;;;9.10;;
37593;SDS011;23441;50.856;6.076;2023-12-14T14:02:04;12.70;;;7.95;;
37593;SDS011;23441;50.856;6.076;2023-12-14T14:04:50;29.63;;;17.33;;
37593;SDS011;23441;50.856;6.076;2023-12-14T14:07:37;16.10;;;10.13;;
37593;SDS011;23441;50.856;6.076;2023-12-14T14:10:23;12.60;;;8.45;;
37593;SDS011;23441;50.856;6.076;2023-12-14T14:13:09;17.58;;;9.15;;
37593;SDS011;23441;50.856;6.076;2023-12-14T14:15:55;17.80;;;9.25;;
37593;SDS011;23441;50.856;6.076;2023-12-14T14:18:41;13.98;;;8.60;;
37593;SDS011;23441;50.856;6.076;2023-12-14T14:21:27;14.85;;;8.88;;
37593;SDS011;23441;50.856;6.076;2023-12-14T14:24:13;14.85;;;8.15;;
37593;SDS011;23441;50.856;6.076;2023-12-14T14:26:59;13.82;;;8.57;;
37593;SDS011;23441;50.856;6.076;2023-12-14T14:29:45;12.80;;;7.95;;
37593;SDS011;23441;50.856;6.076;2023-12-14T14:32:31;15.95;;;8.70;;
37593;SDS011;23441;50.856;6.076;2023-12-14T14:35:18;13.70;;;8.30;;
37593;SDS011;23441;50.856;6.076;2023-12-14T14:38:04;14.70;;;8.50;;
37593;SDS011;23441;50.856;6.076;2023-12-14T14:40:50;13.27;;;8.48;;
37593;SDS011;23441;50.856;6.076;2023-12-14T14:43:36;13.68;;;8.32;;
37593;SDS011;23441;50.856;6.076;2023-12-14T14:46:22;14.05;;;8.30;;
37593;SDS011;23441;50.856;6.076;2023-12-14T14:49:08;13.95;;;8.38;;
37593;SDS011;23441;50.856;6.076;2023-12-14T14:51:54;16.23;;;9.15;;
37593;SDS011;23441;50.856;6.076;2023-12-14T14:54:41;13.07;;;8.00;;
37593;SDS011;23441;50.856;6.076;2023-12-14T14:57:27;15.82;;;8.43;;
37593;SDS011;23441;50.856;6.076;2023-12-14T15:00:13;13.18;;;8.18;;
37593;SDS011;23441;50.856;6.076;2023-12-14T15:03:00;14.85;;;8.40;;
37593;SDS011;23441;50.856;6.076;2023-12-14T15:05:46;13.55;;;8.20;;
37593;SDS011;23441;50.856;6.076;2023-12-14T15:08:32;14.07;;;8.90;;
37593;SDS011;23441;50.856;6.076;2023-12-14T15:11:18;14.00;;;8.35;;
37593;SDS011;23441;50.856;6.076;2023-12-14T15:14:04;16.65;;;9.15;;
37593;SDS011;23441;50.856;6.076;2023-12-14T15:16:49;17.88;;;9.90;;
37593;SDS011;23441;50.856;6.076;2023-12-14T15:19:35;15.90;;;9.30;;
37593;SDS011;23441;50.856;6.076;2023-12-14T15:22:21;14.77;;;9.02;;
37593;SDS011;23441;50.856;6.076;2023-12-14T15:25:07;14.75;;;9.30;;
37593;SDS011;23441;50.856;6.076;2023-12-14T15:27:53;15.02;;;9.05;;
37593;SDS011;23441;50.856;6.076;2023-12-14T15:30:39;18.08;;;9.57;;
37593;SDS011;23441;50.856;6.076;2023-12-14T15:33:26;15.60;;;9.07;;
37593;SDS011;23441;50.856;6.076;2023-12-14T15:36:12;15.98;;;9.73;;
37593;SDS011;23441;50.856;6.076;2023-12-14T15:38:58;19.25;;;10.68;;
37593;SDS011;23441;50.856;6.076;2023-12-14T15:41:44;14.90;;;9.98;;
37593;SDS011;23441;50.856;6.076;2023-12-14T15:44:30;16.90;;;9.43;;
37593;SDS011;23441;50.856;6.076;2023-12-14T15:47:16;17.20;;;10.80;;
37593;SDS011;23441;50.856;6.076;2023-12-14T15:50:02;16.05;;;10.40;;
37593;SDS011;23441;50.856;6.076;2023-12-14T15:52:48;16.67;;;10.05;;
37593;SDS011;23441;50.856;6.076;2023-12-14T15:55:34;16.20;;;10.38;;
37593;SDS011;23441;50.856;6.076;2023-12-14T15:58:21;15.07;;;9.95;;
37593;SDS011;23441;50.856;6.076;2023-12-14T16:01:07;19.65;;;10.60;;
37593;SDS011;23441;50.856;6.076;2023-12-14T16:03:53;18.08;;;10.05;;
37593;SDS011;23441;50.856;6.076;2023-12-14T16:06:39;15.88;;;9.73;;
37593;SDS011;23441;50.856;6.076;2023-12-14T16:09:25;20.13;;;10.80;;
37593;SDS011;23441;50.856;6.076;2023-12-14T16:12:11;18.50;;;11.07;;
37593;SDS011;23441;50.856;6.076;2023-12-14T16:14:56;24.08;;;11.93;;
37593;SDS011;23441;50.856;6.076;2023-12-14T16:17:42;21.98;;;11.70;;
37593;SDS011;23441;50.856;6.076;2023-12-14T16:20:28;19.55;;;11.48;;
37593;SDS011;23441;50.856;6.076;2023-12-14T16:23:14;19.90;;;12.00;;
37593;SDS011;23441;50.856;6.076;2023-12-14T16:26:00;22.45;;;12.13;;
37593;SDS011;23441;50.856;6.076;2023-12-14T16:28:46;22.63;;;13.27;;
37593;SDS011;23441;50.856;6.076;2023-12-14T16:31:32;21.30;;;12.35;;
37593;SDS011;23441;50.856;6.076;2023-12-14T16:34:24;19.35;;;12.02;;